Time;durP1;ratioP1;P1;durP2;ratioP2;P2;SDS_P1;SDS_P2;PMS_P1;PMS_P2;Temp;Humidity;BMP_temperature;BMP_pressure;BME280_temperature;BME280_humidity;BME280_pressure;Samples;Min_cycle;Max_cycle;Signal;HPM_P1;HPM_P2
2024/02/10 00:03:07;;;;;;;14.65;5.00;;;;;;;;;;10538262;28;20118;-75
2024/02/10 00:08:10;;;;;;;19.20;5.65;;;;;;;;;;10545709;28;20088;-76
2024/02/10 00:13:14;;;;;;;12.90;4.70;;;;;;;;;;10542372;28;20047;-75
2024/02/10 00:18:19;;;;;;;14.75;5.93;;;;;;;;;;10553931;27;20047;-74
2024/02/10 00:23:24;;;;;;;11.38;5.60;;;;;;;;;;10542209;28;20723;-75
2024/02/10 00:28:27;;;;;;;13.70;5.30;;;;;;;;;;10551122;28;20056;-75
2024/02/10 00:33:31;;;;;;;13.02;5.88;;;;;;;;;;10549656;28;20138;-75
2024/02/10 00:38:33;;;;;;;;;;;;;;;;;;10548956;28;20502;-74
2024/02/10 00:43:38;;;;;;;16.75;5.32;;;;;;;;;;10543882;28;19924;-74
2024/02/10 00:48:42;;;;;;;13.13;5.47;;;;;;;;;;10545115;28;20477;-75
2024/02/10 00:53:45;;;;;;;10.45;5.63;;;;;;;;;;10539239;28;20035;-74
2024/02/10 00:58:48;;;;;;;13.68;6.13;;;;;;;;;;10534757;28;20060;-75
2024/02/10 01:03:52;;;;;;;15.10;5.60;;;;;;;;;;10549569;28;20408;-75
2024/02/10 01:08:55;;;;;;;13.45;5.75;;;;;;;;;;10530347;28;22361;-75
2024/02/10 01:13:57;;;;;;;14.80;6.22;;;;;;;;;;10547992;28;20221;-75
2024/02/10 01:19:01;;;;;;;18.15;5.90;;;;;;;;;;10552923;27;20453;-74
2024/02/10 01:24:04;;;;;;;15.07;5.95;;;;;;;;;;10559695;27;20056;-76
2024/02/10 01:29:09;;;;;;;16.58;6.55;;;;;;;;;;10555019;27;20070;-74
2024/02/10 01:34:13;;;;;;;14.88;5.13;;;;;;;;;;10548618;27;20063;-75
2024/02/10 01:39:16;;;;;;;15.60;6.07;;;;;;;;;;10555786;27;20039;-75
2024/02/10 01:44:19;;;;;;;12.65;5.03;;;;;;;;;;10571757;27;20855;-76
2024/02/10 01:49:23;;;;;;;14.27;5.60;;;;;;;;;;10536403;28;20036;-76
2024/02/10 01:54:29;;;;;;;13.75;4.30;;;;;;;;;;10552896;27;20649;-76
2024/02/10 01:59:35;;;;;;;16.20;5.13;;;;;;;;;;10546971;27;20051;-75
2024/02/10 02:04:39;;;;;;;11.80;5.75;;;;;;;;;;10540532;28;20040;-75
2024/02/10 02:09:43;;;;;;;20.67;6.45;;;;;;;;;;10555440;28;20493;-75
2024/02/10 02:14:47;;;;;;;12.57;5.07;;;;;;;;;;10552934;27;20039;-74
2024/02/10 02:19:51;;;;;;;15.73;5.75;;;;;;;;;;10548675;28;20404;-75
2024/02/10 02:24:55;;;;;;;14.73;5.97;;;;;;;;;;10539757;28;20415;-75
2024/02/10 02:29:59;;;;;;;16.45;5.95;;;;;;;;;;10550994;28;20134;-75
2024/02/10 02:35:06;;;;;;;16.98;6.05;;;;;;;;;;10555655;28;20066;-75
2024/02/10 02:40:10;;;;;;;13.38;5.47;;;;;;;;;;10559899;28;20086;-73
2024/02/10 02:45:14;;;;;;;14.98;5.78;;;;;;;;;;10554434;27;20400;-74
2024/02/10 02:50:20;;;;;;;14.90;5.97;;;;;;;;;;10556704;28;21653;-75
2024/02/10 02:55:24;;;;;;;15.38;5.32;;;;;;;;;;10549695;27;20036;-75
2024/02/10 03:00:29;;;;;;;;;;;;;;;;;;10542630;27;20660;-74
2024/02/10 03:05:32;;;;;;;6.50;3.45;;;;;;;;;;10549326;27;19993;-75
2024/02/10 03:10:36;;;;;;;14.52;5.72;;;;;;;;;;10540888;27;20176;-75
2024/02/10 03:15:38;;;;;;;;;;;;;;;;;;10541284;28;20039;-75
2024/02/10 03:20:41;;;;;;;13.38;5.18;;;;;;;;;;10544339;28;19943;-75
2024/02/10 03:25:45;;;;;;;12.07;5.03;;;;;;;;;;10541155;27;20305;-76
2024/02/10 03:30:49;;;;;;;12.32;6.35;;;;;;;;;;10546668;28;20038;-75
2024/02/10 03:35:53;;;;;;;14.35;5.40;;;;;;;;;;10558696;27;20113;-76
2024/02/10 03:40:58;;;;;;;13.98;4.07;;;;;;;;;;10541315;27;20040;-75
2024/02/10 03:46:00;;;;;;;;;;;;;;;;;;10537434;28;20036;-75
2024/02/10 03:51:03;;;;;;;13.75;5.50;;;;;;;;;;10543365;27;20711;-76
2024/02/10 03:56:09;;;;;;;5.93;3.13;;;;;;;;;;10545114;28;20039;-75
2024/02/10 04:01:13;;;;;;;14.27;5.53;;;;;;;;;;10539613;27;20052;-75
2024/02/10 04:06:18;;;;;;;11.77;5.40;;;;;;;;;;10549762;27;20040;-74
2024/02/10 04:11:23;;;;;;;13.35;6.20;;;;;;;;;;10549640;28;20048;-75
2024/02/10 04:16:26;;;;;;;12.27;5.20;;;;;;;;;;10545803;28;20451;-75
2024/02/10 04:21:29;;;;;;;18.10;5.55;;;;;;;;;;10545921;28;20058;-76
2024/02/10 04:26:33;;;;;;;16.20;5.65;;;;;;;;;;10544457;28;20040;-76
2024/02/10 04:31:39;;;;;;;17.35;5.72;;;;;;;;;;10555148;28;20050;-74
2024/02/10 04:36:42;;;;;;;19.30;6.53;;;;;;;;;;10549821;28;20504;-74
2024/02/10 04:41:46;;;;;;;13.13;6.13;;;;;;;;;;10543655;28;20069;-76
2024/02/10 04:46:49;;;;;;;16.73;5.68;;;;;;;;;;10543906;28;20060;-74
2024/02/10 04:51:52;;;;;;;15.50;6.05;;;;;;;;;;10556526;28;20043;-74
2024/02/10 04:56:58;;;;;;;13.88;5.45;;;;;;;;;;10560149;27;20117;-75
2024/02/10 05:02:02;;;;;;;14.70;6.38;;;;;;;;;;10563025;27;20535;-75
2024/02/10 05:07:06;;;;;;;14.67;6.20;;;;;;;;;;10557288;27;20119;-75
2024/02/10 05:12:11;;;;;;;15.88;7.30;;;;;;;;;;10561567;28;20050;-76
2024/02/10 05:17:14;;;;;;;15.65;7.93;;;;;;;;;;10557608;27;20147;-74
2024/02/10 05:22:18;;;;;;;16.05;6.90;;;;;;;;;;10572241;27;20501;-73
2024/02/10 05:27:23;;;;;;;19.02;6.88;;;;;;;;;;10555389;27;20146;-74
2024/02/10 05:32:28;;;;;;;14.55;5.40;;;;;;;;;;10561201;27;20057;-76
2024/02/10 05:37:34;;;;;;;13.75;5.20;;;;;;;;;;10556224;28;20116;-73
2024/02/10 05:42:39;;;;;;;10.40;4.40;;;;;;;;;;10559864;28;20048;-75
2024/02/10 05:47:41;;;;;;;;;;;;;;;;;;10551636;28;20115;-74
2024/02/10 05:52:44;;;;;;;11.50;4.53;;;;;;;;;;10560782;27;20016;-75
2024/02/10 05:57:48;;;;;;;3.83;2.25;;;;;;;;;;10548084;27;20131;-76
2024/02/10 06:02:51;;;;;;;4.22;1.92;;;;;;;;;;10544910;28;20072;-76
2024/02/10 06:07:54;;;;;;;6.53;2.85;;;;;;;;;;10552876;27;20063;-76
2024/02/10 06:12:58;;;;;;;10.80;3.50;;;;;;;;;;10548661;28;20116;-75
2024/02/10 06:18:03;;;;;;;;;;;;;;;;;;10549331;27;20027;-75
2024/02/10 06:23:06;;;;;;;7.32;2.50;;;;;;;;;;10545792;28;19928;-75
2024/02/10 06:28:11;;;;;;;4.38;2.25;;;;;;;;;;10550299;27;20039;-75
2024/02/10 06:33:14;;;;;;;5.95;2.95;;;;;;;;;;10553136;28;20093;-75
2024/02/10 06:38:16;;;;;;;4.68;2.55;;;;;;;;;;10552929;27;20038;-75
2024/02/10 06:43:21;;;;;;;6.30;3.05;;;;;;;;;;10553327;27;20450;-75
2024/02/10 06:48:24;;;;;;;;;;;;;;;;;;10538930;27;20185;-76
2024/02/10 06:53:27;;;;;;;10.52;3.58;;;;;;;;;;10546990;28;19927;-75
2024/02/10 06:58:31;;;;;;;12.68;4.30;;;;;;;;;;10555454;27;20043;-75
2024/02/10 07:03:35;;;;;;;6.10;3.03;;;;;;;;;;10549175;27;20375;-76
2024/02/10 07:08:40;;;;;;;9.85;3.72;;;;;;;;;;10555816;27;20040;-75
2024/02/10 07:13:44;;;;;;;7.32;3.22;;;;;;;;;;10554271;27;20202;-75
2024/02/10 07:18:47;;;;;;;5.00;2.88;;;;;;;;;;10527863;28;20043;-75
2024/02/10 07:23:50;;;;;;;10.13;3.63;;;;;;;;;;10548237;27;20047;-75
2024/02/10 07:28:55;;;;;;;8.38;3.83;;;;;;;;;;10548440;27;20142;-75
2024/02/10 07:33:58;;;;;;;6.88;3.38;;;;;;;;;;10543663;28;20039;-75
2024/02/10 07:39:02;;;;;;;9.43;4.03;;;;;;;;;;10546954;28;20044;-74
2024/02/10 07:44:07;;;;;;;11.20;3.92;;;;;;;;;;10545367;28;20040;-74
2024/02/10 07:49:09;;;;;;;8.70;4.00;;;;;;;;;;10550610;28;20628;-75
2024/02/10 07:54:12;;;;;;;8.18;3.90;;;;;;;;;;10556288;28;20269;-75
2024/02/10 07:59:16;;;;;;;9.68;3.92;;;;;;;;;;10552056;28;20038;-75
2024/02/10 08:04:19;;;;;;;17.20;4.38;;;;;;;;;;10551823;28;20147;-74
2024/02/10 08:09:22;;;;;;;16.33;5.13;;;;;;;;;;10549849;27;20050;-74
2024/02/10 08:14:26;;;;;;;11.98;4.25;;;;;;;;;;10550789;28;20058;-75
2024/02/10 08:19:30;;;;;;;;;;;;;;;;;;10537427;28;20123;-75
2024/02/10 08:24:33;;;;;;;13.75;5.47;;;;;;;;;;10546771;28;19924;-74
2024/02/10 08:29:39;;;;;;;16.50;6.35;;;;;;;;;;10544481;28;20177;-74
2024/02/10 08:34:43;;;;;;;15.43;6.18;;;;;;;;;;10546449;28;20040;-74
2024/02/10 08:39:45;;;;;;;;;;;;;;;;;;10545844;28;20067;-75
2024/02/10 08:44:50;;;;;;;11.95;5.75;;;;;;;;;;10548882;28;19927;-74
2024/02/10 08:49:53;;;;;;;13.65;5.20;;;;;;;;;;10548569;28;20047;-75
2024/02/10 08:54:56;;;;;;;13.00;5.22;;;;;;;;;;10549562;28;20448;-75
2024/02/10 09:00:01;;;;;;;16.48;5.88;;;;;;;;;;10546117;28;20128;-77
2024/02/10 09:05:06;;;;;;;10.43;4.68;;;;;;;;;;10546821;28;20135;-74
2024/02/10 09:10:09;;;;;;;10.02;5.13;;;;;;;;;;10552893;28;20067;-76
2024/02/10 09:15:14;;;;;;;12.20;5.53;;;;;;;;;;10543842;28;20039;-73
2024/02/10 09:20:17;;;;;;;11.20;5.05;;;;;;;;;;10540082;28;20123;-75
2024/02/10 09:25:22;;;;;;;16.20;5.50;;;;;;;;;;10542198;28;20513;-73
2024/02/10 09:30:27;;;;;;;18.15;5.78;;;;;;;;;;10543753;28;20036;-75
2024/02/10 09:35:29;;;;;;;;;;;;;;;;;;10547110;27;20043;-74
2024/02/10 09:40:36;;;;;;;8.98;4.07;;;;;;;;;;10559127;27;19920;-76
2024/02/10 09:45:41;;;;;;;10.73;4.43;;;;;;;;;;10554638;27;20075;-75
2024/02/10 09:50:45;;;;;;;10.57;4.35;;;;;;;;;;10554289;27;20137;-74
2024/02/10 09:55:56;;;;;;;11.02;3.90;;;;;;;;;;10537503;27;20108;-75
2024/02/10 10:01:02;;;;;;;;;;;;;;;;;;10549626;27;20044;-74
2024/02/10 10:06:09;;;;;;;11.52;4.53;;;;;;;;;;10554487;27;19920;-75
2024/02/10 10:11:13;;;;;;;13.43;3.65;;;;;;;;;;10552100;27;20040;-76
2024/02/10 10:16:16;;;;;;;12.30;4.40;;;;;;;;;;10556933;27;20039;-76
2024/02/10 10:21:20;;;;;;;8.13;4.20;;;;;;;;;;10551951;27;20549;-74
2024/02/10 10:26:23;;;;;;;;;;;;;;;;;;10544909;28;20043;-74
2024/02/10 10:31:27;;;;;;;8.93;4.15;;;;;;;;;;10558026;28;19955;-76
2024/02/10 10:36:32;;;;;;;6.72;3.80;;;;;;;;;;10544444;28;20190;-77
2024/02/10 10:41:38;;;;;;;7.78;3.78;;;;;;;;;;10556347;27;20443;-77
2024/02/10 10:46:41;;;;;;;7.35;3.65;;;;;;;;;;10561814;28;20044;-76
2024/02/10 10:51:51;;;;;;;7.57;4.17;;;;;;;;;;10555123;27;20063;-74
2024/02/10 10:56:54;;;;;;;8.75;4.47;;;;;;;;;;10550603;27;20071;-76
2024/02/10 11:01:57;;;;;;;8.40;4.13;;;;;;;;;;10558241;28;20036;-75
2024/02/10 11:07:09;;;;;;;6.63;3.78;;;;;;;;;;10555407;28;20048;-76
2024/02/10 11:12:17;;;;;;;11.70;4.60;;;;;;;;;;10557173;27;20078;-74
2024/02/10 11:17:20;;;;;;;17.02;6.50;;;;;;;;;;10548640;27;20042;-73
2024/02/10 11:22:26;;;;;;;10.60;4.37;;;;;;;;;;10550968;27;20047;-75
2024/02/10 11:27:30;;;;;;;8.70;4.07;;;;;;;;;;10550622;27;20050;-75
2024/02/10 11:32:33;;;;;;;;;;;;;;;;;;10547834;27;20063;-79
2024/02/10 11:37:38;;;;;;;4.25;2.65;;;;;;;;;;10554845;27;19919;-81
2024/02/10 11:42:42;;;;;;;7.60;3.70;;;;;;;;;;10538321;28;20096;-80
2024/02/10 11:47:50;;;;;;;8.60;3.72;;;;;;;;;;10555619;28;20111;-81
2024/02/10 11:52:58;;;;;;;8.07;3.45;;;;;;;;;;10547887;27;20118;-80
2024/02/10 11:58:04;;;;;;;7.82;3.50;;;;;;;;;;10550527;27;20047;-79
2024/02/10 12:03:06;;;;;;;6.90;2.38;;;;;;;;;;10545821;28;20044;-80
2024/02/10 12:08:11;;;;;;;8.32;4.28;;;;;;;;;;10549547;28;20039;-81
2024/02/10 12:13:18;;;;;;;9.00;3.97;;;;;;;;;;10546587;27;20401;-80
2024/02/10 12:18:25;;;;;;;8.07;4.05;;;;;;;;;;10549316;28;20420;-80
2024/02/10 12:23:29;;;;;;;7.15;3.63;;;;;;;;;;10543535;28;20058;-80
2024/02/10 12:28:33;;;;;;;8.80;3.90;;;;;;;;;;10549644;28;20032;-80
2024/02/10 12:33:36;;;;;;;5.10;2.92;;;;;;;;;;10556736;28;20040;-79
2024/02/10 12:38:42;;;;;;;8.75;3.90;;;;;;;;;;10541122;28;20193;-80
2024/02/10 12:43:45;;;;;;;8.15;4.00;;;;;;;;;;10551440;28;20035;-82
2024/02/10 12:48:50;;;;;;;8.43;3.25;;;;;;;;;;10554435;28;20049;-81
2024/02/10 12:53:54;;;;;;;5.28;2.90;;;;;;;;;;10542863;28;20098;-82
2024/02/10 12:58:58;;;;;;;7.80;3.35;;;;;;;;;;10541091;28;20047;-80
2024/02/10 13:04:02;;;;;;;4.38;2.17;;;;;;;;;;10557248;28;20078;-80
2024/02/10 13:09:08;;;;;;;5.72;2.90;;;;;;;;;;10553378;28;20047;-80
2024/02/10 13:14:12;;;;;;;6.22;2.45;;;;;;;;;;10559604;27;20081;-81
2024/02/10 13:19:15;;;;;;;6.75;2.38;;;;;;;;;;10573007;27;20062;-80
2024/02/10 13:24:21;;;;;;;3.15;0.98;;;;;;;;;;10563265;27;20595;-79
2024/02/10 13:29:24;;;;;;;5.82;1.83;;;;;;;;;;10561517;28;20546;-80
2024/02/10 13:34:28;;;;;;;5.13;1.80;;;;;;;;;;10560855;27;20071;-81
2024/02/10 14:01:17;;;;;;;2.08;1.20;;;;;;;;;;10508171;28;20542;-79
2024/02/10 14:06:32;;;;;;;1.52;0.70;;;;;;;;;;10516559;28;20076;-81
2024/02/10 14:11:38;;;;;;;5.15;0.60;;;;;;;;;;10511223;28;20199;-81
2024/02/10 14:16:43;;;;;;;2.08;0.73;;;;;;;;;;10512898;28;20267;-79
2024/02/10 14:21:48;;;;;;;1.15;0.57;;;;;;;;;;10516277;28;20399;-79
2024/02/10 14:27:00;;;;;;;1.65;0.80;;;;;;;;;;10511926;28;20055;-79
2024/02/10 14:32:09;;;;;;;0.73;0.65;;;;;;;;;;10520073;28;20040;-79
2024/02/10 14:37:26;;;;;;;0.32;0.30;;;;;;;;;;10524819;28;20096;-78
2024/02/10 14:42:31;;;;;;;1.58;0.93;;;;;;;;;;10513083;28;20489;-80
2024/02/10 14:47:36;;;;;;;0.38;0.32;;;;;;;;;;10515762;28;20045;-79
2024/02/10 14:52:41;;;;;;;2.30;0.68;;;;;;;;;;10537218;27;20051;-80
2024/02/10 14:57:45;;;;;;;0.80;0.55;;;;;;;;;;10567022;27;20039;-79
2024/02/10 15:02:48;;;;;;;;;;;;;;;;;;10563728;27;20039;-79
2024/02/10 15:07:51;;;;;;;1.30;0.93;;;;;;;;;;10572832;27;19940;-81
2024/02/10 15:13:02;;;;;;;2.97;1.00;;;;;;;;;;10569259;27;20054;-80
2024/02/10 15:18:05;;;;;;;2.08;1.10;;;;;;;;;;10558509;28;20360;-79
2024/02/10 15:23:10;;;;;;;2.20;1.23;;;;;;;;;;10567631;27;20034;-80
2024/02/10 15:28:15;;;;;;;3.28;1.20;;;;;;;;;;10568824;27;20481;-80
2024/02/10 15:33:19;;;;;;;1.80;1.10;;;;;;;;;;10555898;27;20075;-79
2024/02/10 15:38:21;;;;;;;;;;;;;;;;;;10554846;27;20043;-81
2024/02/10 15:43:27;;;;;;;2.67;1.20;;;;;;;;;;10559554;27;19919;-81
2024/02/10 15:48:30;;;;;;;2.08;1.23;;;;;;;;;;10554419;28;20067;-80
2024/02/10 15:53:37;;;;;;;3.90;0.98;;;;;;;;;;10552868;28;20048;-80
2024/02/10 15:58:44;;;;;;;2.90;1.63;;;;;;;;;;10553577;28;20501;-80
2024/02/10 16:03:47;;;;;;;2.75;1.23;;;;;;;;;;10554101;28;20571;-81
2024/02/10 16:08:51;;;;;;;2.08;1.17;;;;;;;;;;10559459;28;20047;-79
2024/02/10 16:13:56;;;;;;;2.10;0.70;;;;;;;;;;10550600;28;20589;-80
2024/02/10 16:18:59;;;;;;;3.65;1.63;;;;;;;;;;10551557;27;20039;-81
2024/02/10 16:24:04;;;;;;;6.28;1.70;;;;;;;;;;10550569;28;20060;-80
2024/02/10 16:29:11;;;;;;;3.40;1.90;;;;;;;;;;10548001;28;20039;-80
2024/02/10 16:34:16;;;;;;;3.60;1.90;;;;;;;;;;10554811;28;20036;-78
2024/02/10 16:39:21;;;;;;;3.38;2.28;;;;;;;;;;10559399;28;20528;-80
2024/02/10 16:44:27;;;;;;;5.53;2.40;;;;;;;;;;10557503;28;20067;-80
2024/02/10 16:49:30;;;;;;;7.60;2.22;;;;;;;;;;10565233;28;20059;-80
2024/02/10 16:54:33;;;;;;;5.37;2.60;;;;;;;;;;10577028;27;20048;-79
2024/02/10 16:59:38;;;;;;;5.85;2.80;;;;;;;;;;10564143;28;20114;-81
2024/02/10 17:04:42;;;;;;;7.38;2.80;;;;;;;;;;10572371;27;20051;-79
2024/02/10 17:09:45;;;;;;;6.57;2.70;;;;;;;;;;10563713;28;20059;-79
2024/02/10 17:14:49;;;;;;;7.05;3.20;;;;;;;;;;10556938;27;20048;-80
2024/02/10 17:19:51;;;;;;;;;;;;;;;;;;10567849;28;20068;-80
2024/02/10 17:24:54;;;;;;;7.30;3.08;;;;;;;;;;10549108;27;20141;-79
2024/02/10 17:30:01;;;;;;;9.18;3.47;;;;;;;;;;10565587;27;20051;-79
2024/02/10 17:35:05;;;;;;;7.53;3.28;;;;;;;;;;10574995;27;20043;-79
2024/02/10 17:40:08;;;;;;;7.57;2.92;;;;;;;;;;10564127;27;20047;-79
2024/02/10 17:45:13;;;;;;;5.13;2.58;;;;;;;;;;10553084;28;20043;-80
2024/02/10 17:50:16;;;;;;;6.65;2.70;;;;;;;;;;10555960;27;20043;-79
2024/02/10 17:55:21;;;;;;;6.95;2.75;;;;;;;;;;10556036;27;20109;-80
2024/02/10 18:00:26;;;;;;;5.95;3.40;;;;;;;;;;10548605;27;20036;-77
2024/02/10 18:05:30;;;;;;;9.43;3.55;;;;;;;;;;10551588;27;20104;-78
2024/02/10 18:10:35;;;;;;;7.75;3.10;;;;;;;;;;10528533;28;20106;-79
2024/02/10 18:15:40;;;;;;;8.13;3.47;;;;;;;;;;10539771;28;20043;-78
2024/02/10 18:20:42;;;;;;;7.68;3.03;;;;;;;;;;10558470;28;20128;-80
2024/02/10 18:25:45;;;;;;;12.73;3.63;;;;;;;;;;10552509;27;20036;-80
2024/02/10 18:30:51;;;;;;;18.23;5.70;;;;;;;;;;10560985;27;20032;-80
2024/02/10 18:35:58;;;;;;;8.57;3.40;;;;;;;;;;10569908;27;20652;-79
2024/02/10 18:41:01;;;;;;;9.30;3.60;;;;;;;;;;10554853;27;20067;-80
2024/02/10 18:46:08;;;;;;;7.70;3.20;;;;;;;;;;10549973;28;20116;-78
2024/02/10 18:51:16;;;;;;;7.63;3.00;;;;;;;;;;10548608;27;20133;-79
2024/02/10 18:56:23;;;;;;;6.25;3.13;;;;;;;;;;10544105;27;20032;-81
2024/02/10 19:01:31;;;;;;;9.02;3.25;;;;;;;;;;10545720;28;20044;-79
2024/02/10 19:06:35;;;;;;;7.53;3.42;;;;;;;;;;10550963;28;20469;-80
2024/02/10 19:11:38;;;;;;;7.97;3.30;;;;;;;;;;10557416;27;21142;-79
2024/02/10 19:16:43;;;;;;;10.57;3.90;;;;;;;;;;10553402;27;20051;-79
2024/02/10 19:21:49;;;;;;;;;;;;;;;;;;10559255;27;20036;-81
2024/02/10 19:26:58;;;;;;;12.80;4.55;;;;;;;;;;10558405;27;19992;-80
2024/02/10 19:32:03;;;;;;;7.57;3.35;;;;;;;;;;10557386;27;20430;-79
2024/02/10 19:37:06;;;;;;;7.90;3.38;;;;;;;;;;10562511;27;20548;-80
2024/02/10 19:42:09;;;;;;;9.85;3.83;;;;;;;;;;10576805;27;20043;-80
2024/02/10 19:47:15;;;;;;;9.40;4.22;;;;;;;;;;10563652;28;20035;-81
2024/02/10 19:52:18;;;;;;;8.50;4.07;;;;;;;;;;10573297;28;20130;-81
2024/02/10 19:57:22;;;;;;;8.30;3.70;;;;;;;;;;10574058;27;20088;-81
2024/02/10 20:02:27;;;;;;;9.45;4.38;;;;;;;;;;10566257;28;20054;-79
2024/02/10 20:07:37;;;;;;;10.90;4.28;;;;;;;;;;10569092;28;20418;-81
2024/02/10 20:12:44;;;;;;;10.40;4.40;;;;;;;;;;10572001;27;20605;-79
2024/02/10 20:17:53;;;;;;;11.07;4.50;;;;;;;;;;10561628;28;20119;-80
2024/02/10 20:22:56;;;;;;;9.85;4.47;;;;;;;;;;10566439;28;20492;-80
2024/02/10 20:27:59;;;;;;;8.00;4.18;;;;;;;;;;10568271;28;20046;-80
2024/02/10 20:33:03;;;;;;;13.65;4.15;;;;;;;;;;10561305;28;20066;-73
2024/02/10 20:38:09;;;;;;;10.48;4.60;;;;;;;;;;10557105;28;20139;-73
2024/02/10 20:43:14;;;;;;;11.02;4.57;;;;;;;;;;10558650;28;20879;-72
2024/02/10 20:48:23;;;;;;;11.25;4.65;;;;;;;;;;10550237;28;20111;-72
2024/02/10 20:53:26;;;;;;;14.27;4.45;;;;;;;;;;10553629;28;20043;-75
2024/02/10 20:58:29;;;;;;;9.60;4.35;;;;;;;;;;10550143;28;20071;-76
2024/02/10 21:03:33;;;;;;;10.48;4.55;;;;;;;;;;10551266;28;20074;-75
2024/02/10 21:08:37;;;;;;;;;;;;;;;;;;10544413;28;20051;-76
2024/02/10 21:13:41;;;;;;;8.93;4.57;;;;;;;;;;10543515;28;19999;-76
2024/02/10 21:18:50;;;;;;;10.10;4.60;;;;;;;;;;10551601;28;20044;-75
2024/02/10 21:23:53;;;;;;;12.98;5.30;;;;;;;;;;10550506;28;20044;-75
2024/02/10 21:28:56;;;;;;;16.77;6.30;;;;;;;;;;10549829;28;20132;-78
2024/02/10 21:34:00;;;;;;;13.32;5.70;;;;;;;;;;10565004;27;20051;-76
2024/02/10 21:39:04;;;;;;;15.77;7.03;;;;;;;;;;10565274;27;20065;-75
2024/02/10 21:44:10;;;;;;;10.07;5.40;;;;;;;;;;10555659;28;20040;-76
2024/02/10 21:49:16;;;;;;;12.00;5.90;;;;;;;;;;10558462;27;20035;-76
2024/02/10 21:54:19;;;;;;;12.32;5.53;;;;;;;;;;10562980;27;20130;-75
2024/02/10 21:59:22;;;;;;;12.55;6.00;;;;;;;;;;10549545;27;20069;-75
2024/02/10 22:04:27;;;;;;;13.80;5.97;;;;;;;;;;10558108;28;20223;-74
2024/02/10 22:09:30;;;;;;;13.98;6.82;;;;;;;;;;10561156;27;20656;-75
2024/02/10 22:14:33;;;;;;;17.02;6.78;;;;;;;;;;10568403;28;20035;-75
2024/02/10 22:19:37;;;;;;;13.43;6.93;;;;;;;;;;10569785;27;20040;-75
2024/02/10 22:24:42;;;;;;;13.50;6.13;;;;;;;;;;10556931;28;20036;-75
2024/02/10 22:29:45;;;;;;;12.13;6.53;;;;;;;;;;10540934;27;20427;-74
2024/02/10 22:34:49;;;;;;;17.08;6.82;;;;;;;;;;10551645;28;20187;-75
2024/02/10 22:39:52;;;;;;;14.85;6.38;;;;;;;;;;10557458;27;20461;-76
2024/02/10 22:44:55;;;;;;;11.13;4.78;;;;;;;;;;10546156;28;20093;-75
2024/02/10 22:50:00;;;;;;;11.68;5.28;;;;;;;;;;10563231;27;20050;-74
2024/02/10 22:55:06;;;;;;;14.77;6.65;;;;;;;;;;10555338;27;20042;-75
2024/02/10 23:00:13;;;;;;;12.48;6.20;;;;;;;;;;10560316;28;20047;-74
2024/02/10 23:05:19;;;;;;;7.28;3.78;;;;;;;;;;10554780;28;20739;-75
2024/02/10 23:10:23;;;;;;;16.13;7.20;;;;;;;;;;10559323;27;20412;-75
2024/02/10 23:15:27;;;;;;;9.85;4.50;;;;;;;;;;10556935;28;20470;-75
2024/02/10 23:20:33;;;;;;;14.00;6.63;;;;;;;;;;10556489;27;20040;-75
2024/02/10 23:25:36;;;;;;;14.68;5.85;;;;;;;;;;10549276;27;20072;-74
2024/02/10 23:30:39;;;;;;;14.27;6.20;;;;;;;;;;10549158;27;20054;-77
2024/02/10 23:35:43;;;;;;;11.43;5.28;;;;;;;;;;10536729;28;20032;-74
2024/02/10 23:40:45;;;;;;;9.43;4.03;;;;;;;;;;10555792;27;20116;-75
2024/02/10 23:45:49;;;;;;;11.77;6.00;;;;;;;;;;10554539;27;20036;-75
2024/02/10 23:50:53;;;;;;;12.68;5.07;;;;;;;;;;10559446;27;20067;-76
2024/02/10 23:55:56;;;;;;;;;;;;;;;;;;10556071;27;20113;-75
